createdAt,value
2022-08-01T00:00:56.423Z,0.00
2022-08-01T00:01:56.512Z,0.00
2022-08-01T00:02:56.468Z,0.00
2022-08-01T00:03:56.419Z,0.00
2022-08-01T00:04:56.421Z,0.00
2022-08-01T00:05:56.414Z,0.00
2022-08-01T00:06:56.414Z,0.00
2022-08-01T00:07:56.415Z,0.00
2022-08-01T00:08:56.412Z,0.00
2022-08-01T00:09:56.429Z,0.00
2022-08-01T00:10:56.411Z,0.00
2022-08-01T00:11:59.868Z,0.00
2022-08-01T00:12:56.412Z,0.00
2022-08-01T00:13:56.406Z,0.00
2022-08-01T00:14:56.422Z,0.00
2022-08-01T00:15:56.399Z,0.00
2022-08-01T00:16:56.401Z,0.00
2022-08-01T00:17:56.399Z,0.00
2022-08-01T00:18:56.396Z,0.00
2022-08-01T00:19:56.392Z,0.00
2022-08-01T00:20:56.391Z,0.00
2022-08-01T00:21:56.395Z,0.00
2022-08-01T00:22:56.393Z,0.00
2022-08-01T00:23:56.389Z,0.00
2022-08-01T00:24:56.398Z,0.00
2022-08-01T00:25:56.395Z,0.00
2022-08-01T00:26:56.387Z,0.00
2022-08-01T00:27:56.383Z,0.00
2022-08-01T00:28:56.379Z,0.00
2022-08-01T00:30:13.368Z,0.00
2022-08-01T00:30:56.376Z,0.00
2022-08-01T00:31:56.378Z,0.00
2022-08-01T00:32:56.375Z,0.00
2022-08-01T00:33:56.371Z,0.00
2022-08-01T00:34:56.371Z,0.00
2022-08-01T00:35:56.368Z,0.00
2022-08-01T00:36:56.369Z,0.00
2022-08-01T00:37:56.371Z,0.00
2022-08-01T00:38:56.361Z,0.00
2022-08-01T00:39:56.366Z,0.00
2022-08-01T00:40:56.357Z,0.00
2022-08-01T00:41:59.536Z,0.00
2022-08-01T00:42:56.359Z,0.00
2022-08-01T00:43:56.361Z,0.00
2022-08-01T00:44:56.351Z,0.00
2022-08-01T00:45:56.353Z,0.00
2022-08-01T00:46:56.353Z,0.00
2022-08-01T00:47:56.352Z,0.00
2022-08-01T00:48:56.374Z,0.00
2022-08-01T00:49:56.347Z,0.00
2022-08-01T00:50:56.343Z,0.00
2022-08-01T00:51:56.345Z,0.00
2022-08-01T00:52:56.352Z,0.00
2022-08-01T00:53:56.343Z,0.00
2022-08-01T00:54:56.338Z,0.00
2022-08-01T00:55:56.338Z,0.00
2022-08-01T00:56:56.330Z,0.00
2022-08-01T00:58:04.918Z,0.00
2022-08-01T00:58:56.331Z,0.00
2022-08-01T00:59:56.345Z,0.00
2022-08-01T01:00:56.412Z,0.00
2022-08-01T01:01:56.379Z,0.00
2022-08-01T01:02:56.337Z,0.00
2022-08-01T01:03:59.084Z,0.00
2022-08-01T01:04:56.320Z,0.00
2022-08-01T01:05:56.320Z,0.00
2022-08-01T01:06:56.320Z,0.00
2022-08-01T01:07:56.316Z,0.00
2022-08-01T01:08:56.312Z,0.00
2022-08-01T01:09:56.309Z,0.00
2022-08-01T01:10:56.310Z,0.00
2022-08-01T01:11:56.312Z,0.00
2022-08-01T01:12:56.304Z,0.00
2022-08-01T01:13:56.302Z,0.00
2022-08-01T01:14:56.329Z,0.00
2022-08-01T01:15:56.297Z,0.00
2022-08-01T01:16:56.300Z,0.00
2022-08-01T01:17:56.297Z,0.00
2022-08-01T01:18:56.294Z,0.00
2022-08-01T01:19:56.295Z,0.00
2022-08-01T01:20:56.291Z,0.00
2022-08-01T01:21:56.286Z,0.00
2022-08-01T01:22:56.289Z,0.00
2022-08-01T01:23:56.286Z,0.00
2022-08-01T01:24:56.284Z,0.00
2022-08-01T01:25:56.283Z,0.00
2022-08-01T01:26:56.280Z,0.00
2022-08-01T01:27:56.277Z,0.00
2022-08-01T01:28:56.273Z,0.00
2022-08-01T01:29:59.787Z,0.00
2022-08-01T01:30:56.272Z,0.00
2022-08-01T01:31:56.275Z,0.00
2022-08-01T01:32:56.266Z,0.00
2022-08-01T01:33:56.266Z,0.00
2022-08-01T01:34:56.265Z,0.00
2022-08-01T01:35:56.259Z,0.00
2022-08-01T01:36:56.258Z,0.00
2022-08-01T01:37:56.257Z,0.00
2022-08-01T01:38:56.252Z,0.00
2022-08-01T01:39:56.253Z,0.00
2022-08-01T01:40:56.246Z,0.00
2022-08-01T01:41:56.243Z,0.00
2022-08-01T01:42:56.249Z,0.00
2022-08-01T01:43:56.248Z,0.00
2022-08-01T01:44:56.245Z,0.00
2022-08-01T01:45:56.236Z,0.00
2022-08-01T01:46:56.237Z,0.00
2022-08-01T01:47:56.237Z,0.00
2022-08-01T01:48:56.280Z,0.00
2022-08-01T01:49:56.233Z,0.00
2022-08-01T01:50:56.227Z,0.00
2022-08-01T01:52:03.325Z,0.00
2022-08-01T01:52:56.222Z,0.00
2022-08-01T01:53:56.225Z,0.00
2022-08-01T01:54:56.221Z,0.00
2022-08-01T01:55:56.218Z,0.00
2022-08-01T01:56:56.219Z,0.00
2022-08-01T01:57:56.216Z,0.00
2022-08-01T01:58:56.210Z,0.00
2022-08-01T01:59:56.212Z,0.00
2022-08-01T02:00:56.205Z,0.00
2022-08-01T02:02:05.745Z,0.00
2022-08-01T02:02:56.293Z,0.00
2022-08-01T02:03:56.202Z,0.00
2022-08-01T02:04:56.199Z,0.00
2022-08-01T02:05:56.195Z,0.00
2022-08-01T02:06:56.196Z,0.00
2022-08-01T02:07:59.682Z,0.00
2022-08-01T02:08:56.188Z,0.00
2022-08-01T02:09:56.189Z,0.00
2022-08-01T02:10:56.184Z,0.00
2022-08-01T02:12:08.073Z,0.00
2022-08-01T02:12:56.179Z,0.00
2022-08-01T02:13:56.177Z,0.00
2022-08-01T02:14:56.178Z,0.00
2022-08-01T02:16:00.175Z,0.00
2022-08-01T02:16:56.175Z,0.00
2022-08-01T02:17:56.169Z,0.00
2022-08-01T02:18:56.168Z,0.00
2022-08-01T02:19:56.171Z,0.00
2022-08-01T02:20:56.160Z,0.00
2022-08-01T02:21:56.163Z,0.00
2022-08-01T02:22:56.163Z,0.00
2022-08-01T02:23:56.155Z,0.00
2022-08-01T02:24:56.154Z,0.00
2022-08-01T02:26:08.616Z,0.00
2022-08-01T02:26:56.152Z,0.00
2022-08-01T02:27:56.150Z,0.00
2022-08-01T02:28:56.141Z,0.00
2022-08-01T02:29:56.142Z,0.00
2022-08-01T02:30:56.136Z,0.00
2022-08-01T02:31:56.142Z,0.00
2022-08-01T02:32:56.135Z,0.00
2022-08-01T02:33:56.134Z,0.00
2022-08-01T02:34:56.133Z,0.00
2022-08-01T02:36:30.190Z,0.00
2022-08-01T02:36:56.127Z,0.00
2022-08-01T02:37:56.128Z,0.00
2022-08-01T02:38:56.120Z,0.00
2022-08-01T02:39:56.125Z,0.00
2022-08-01T02:40:56.116Z,0.00
2022-08-01T02:41:56.117Z,0.00
2022-08-01T02:42:56.110Z,0.00
2022-08-01T02:43:56.114Z,0.00
2022-08-01T02:44:56.108Z,0.00
2022-08-01T02:45:56.104Z,0.00
2022-08-01T02:46:56.109Z,0.00
2022-08-01T02:47:56.101Z,0.00
2022-08-01T02:48:56.159Z,0.00
2022-08-01T02:49:56.098Z,0.00
2022-08-01T02:50:56.094Z,0.00
2022-08-01T02:51:56.091Z,0.00
2022-08-01T02:52:56.091Z,0.00
2022-08-01T02:53:56.087Z,0.00
2022-08-01T02:54:56.082Z,0.00
2022-08-01T02:55:56.080Z,0.00
2022-08-01T02:56:56.082Z,0.00
2022-08-01T02:58:00.074Z,0.00
2022-08-01T02:58:56.074Z,0.00
2022-08-01T02:59:56.074Z,0.00
2022-08-01T03:00:56.066Z,0.00
2022-08-01T03:01:56.104Z,0.00
2022-08-01T03:02:56.144Z,0.00
2022-08-01T03:03:56.061Z,0.00
2022-08-01T03:04:57.216Z,0.00
2022-08-01T03:05:56.054Z,0.00
2022-08-01T03:06:56.063Z,0.00
2022-08-01T03:07:56.058Z,0.00
2022-08-01T03:08:56.049Z,0.00
2022-08-01T03:09:56.050Z,0.00
2022-08-01T03:10:56.042Z,0.00
2022-08-01T03:11:56.044Z,0.00
2022-08-01T03:12:56.041Z,0.00
2022-08-01T03:13:56.040Z,0.00
2022-08-01T03:14:56.037Z,0.00
2022-08-01T03:15:56.031Z,0.00
2022-08-01T03:16:56.037Z,0.00
2022-08-01T03:17:56.027Z,0.00
2022-08-01T03:18:56.026Z,0.00
2022-08-01T03:19:56.020Z,0.00
2022-08-01T03:20:56.023Z,0.00
2022-08-01T03:21:56.019Z,0.00
2022-08-01T03:22:56.015Z,0.00
2022-08-01T03:23:56.009Z,0.00
2022-08-01T03:24:56.012Z,0.00
2022-08-01T03:25:56.004Z,0.00
2022-08-01T03:26:56.006Z,4.00
2022-08-01T03:27:56.005Z,4.00
2022-08-01T03:28:55.998Z,0.00
2022-08-01T03:29:55.999Z,0.00
2022-08-01T03:30:56.004Z,4.00
2022-08-01T03:31:55.990Z,0.00
2022-08-01T03:32:55.991Z,4.00
2022-08-01T03:33:55.984Z,4.00
2022-08-01T03:34:55.985Z,8.00
2022-08-01T03:35:55.982Z,4.00
2022-08-01T03:36:55.999Z,8.00
2022-08-01T03:38:15.210Z,8.00
2022-08-01T03:38:55.972Z,8.00
2022-08-01T03:39:55.971Z,8.00
2022-08-01T03:40:55.975Z,12.00
2022-08-01T03:42:04.312Z,12.00
2022-08-01T03:42:55.964Z,16.00
2022-08-01T03:43:55.955Z,16.00
2022-08-01T03:44:55.955Z,20.00
2022-08-01T03:45:55.955Z,20.00
2022-08-01T03:46:55.955Z,24.00
2022-08-01T03:47:55.949Z,28.00
2022-08-01T03:48:55.994Z,32.00
2022-08-01T03:49:55.944Z,32.00
2022-08-01T03:50:55.939Z,36.00
2022-08-01T03:51:55.943Z,40.00
2022-08-01T03:52:55.938Z,44.00
2022-08-01T03:53:55.929Z,48.00
2022-08-01T03:54:55.932Z,56.00
2022-08-01T03:55:55.930Z,60.00
2022-08-01T03:56:55.926Z,64.00
2022-08-01T03:57:55.923Z,72.00
2022-08-01T03:58:55.932Z,72.00
2022-08-01T03:59:55.918Z,80.00
2022-08-01T04:00:55.943Z,88.00
2022-08-01T04:01:55.957Z,92.00
2022-08-01T04:02:55.911Z,96.00
2022-08-01T04:03:55.906Z,104.00
2022-08-01T04:04:55.903Z,112.00
2022-08-01T04:05:55.901Z,120.00
2022-08-01T04:06:55.899Z,124.00
2022-08-01T04:07:56.775Z,128.00
2022-08-01T04:08:55.891Z,136.00
2022-08-01T04:09:55.942Z,144.00
2022-08-01T04:10:55.882Z,152.00
2022-08-01T04:11:55.885Z,160.00
2022-08-01T04:12:55.881Z,168.00
2022-08-01T04:13:55.872Z,180.00
2022-08-01T04:14:55.875Z,192.00
2022-08-01T04:15:55.870Z,200.00
2022-08-01T04:16:55.869Z,208.00
2022-08-01T04:17:56.772Z,216.00
2022-08-01T04:18:55.861Z,220.00
2022-08-01T04:19:55.861Z,232.00
2022-08-01T04:20:55.884Z,244.00
2022-08-01T04:21:55.850Z,264.00
2022-08-01T04:22:55.855Z,284.00
2022-08-01T04:23:55.843Z,300.00
2022-08-01T04:24:57.038Z,336.00
2022-08-01T04:25:55.846Z,384.00
2022-08-01T04:26:55.839Z,396.00
2022-08-01T04:27:56.869Z,416.00
2022-08-01T04:28:55.830Z,448.00
2022-08-01T04:29:55.822Z,472.00
2022-08-01T04:31:01.222Z,520.00
2022-08-01T04:31:55.826Z,536.00
2022-08-01T04:32:55.823Z,520.00
2022-08-01T04:33:55.817Z,524.00
2022-08-01T04:34:55.820Z,576.00
2022-08-01T04:36:03.612Z,592.00
2022-08-01T04:36:55.812Z,620.00
2022-08-01T04:37:56.798Z,632.00
2022-08-01T04:38:55.803Z,636.00
2022-08-01T04:39:55.803Z,652.00
2022-08-01T04:40:55.797Z,624.00
2022-08-01T04:41:55.795Z,644.00
2022-08-01T04:42:55.794Z,628.00
2022-08-01T04:43:55.786Z,664.00
2022-08-01T04:44:55.789Z,660.00
2022-08-01T04:45:55.783Z,636.00
2022-08-01T04:46:55.781Z,596.00
2022-08-01T04:47:56.305Z,560.00
2022-08-01T04:48:55.834Z,520.00
2022-08-01T04:49:55.769Z,480.00
2022-08-01T04:50:55.773Z,468.00
2022-08-01T04:51:55.767Z,476.00
2022-08-01T04:52:55.768Z,472.00
2022-08-01T04:53:55.759Z,480.00
2022-08-01T04:54:55.761Z,488.00
2022-08-01T04:55:55.761Z,484.00
2022-08-01T04:56:55.754Z,500.00
2022-08-01T04:57:55.757Z,512.00
2022-08-01T04:58:55.791Z,532.00
2022-08-01T04:59:55.745Z,552.00
2022-08-01T05:00:55.829Z,588.00
2022-08-01T05:01:55.739Z,640.00
2022-08-01T05:02:55.738Z,700.00
2022-08-01T05:03:55.732Z,768.00
2022-08-01T05:04:55.735Z,808.00
2022-08-01T05:05:55.737Z,804.00
2022-08-01T05:06:55.747Z,780.00
2022-08-01T05:07:55.730Z,752.00
2022-08-01T05:08:55.721Z,720.00
2022-08-01T05:09:55.740Z,692.00
2022-08-01T05:10:55.713Z,648.00
2022-08-01T05:11:55.710Z,608.00
2022-08-01T05:12:55.714Z,588.00
2022-08-01T05:13:55.703Z,592.00
2022-08-01T05:14:55.705Z,604.00
2022-08-01T05:15:55.699Z,620.00
2022-08-01T05:16:55.698Z,632.00
2022-08-01T05:17:55.706Z,656.00
2022-08-01T05:18:55.693Z,664.00
2022-08-01T05:19:55.691Z,680.00
2022-08-01T05:20:55.691Z,724.00
2022-08-01T05:21:59.271Z,848.00
2022-08-01T05:22:55.679Z,912.00
2022-08-01T05:23:55.676Z,968.00
2022-08-01T05:24:55.675Z,976.00
2022-08-01T05:25:56.684Z,928.00
2022-08-01T05:26:55.677Z,860.00
2022-08-01T05:27:55.671Z,904.00
2022-08-01T05:28:55.660Z,1048.00
2022-08-01T05:29:55.658Z,1108.00
2022-08-01T05:30:55.654Z,1168.00
2022-08-01T05:31:55.654Z,1208.00
2022-08-01T05:32:55.650Z,1136.00
2022-08-01T05:33:55.643Z,1064.00
2022-08-01T05:34:55.647Z,980.00
2022-08-01T05:35:55.642Z,916.00
2022-08-01T05:36:57.067Z,872.00
2022-08-01T05:37:55.637Z,808.00
2022-08-01T05:38:55.635Z,764.00
2022-08-01T05:39:55.634Z,784.00
2022-08-01T05:40:55.628Z,844.00
2022-08-01T05:41:55.625Z,940.00
2022-08-01T05:42:55.625Z,1008.00
2022-08-01T05:43:55.623Z,1024.00
2022-08-01T05:44:55.619Z,1004.00
2022-08-01T05:45:55.612Z,996.00
2022-08-01T05:46:55.615Z,1092.00
2022-08-01T05:47:55.611Z,1276.00
2022-08-01T05:48:55.707Z,1528.00
2022-08-01T05:49:55.609Z,1620.00
2022-08-01T05:50:58.688Z,1528.00
2022-08-01T05:51:55.599Z,1456.00
2022-08-01T05:52:55.597Z,1376.00
2022-08-01T05:53:55.591Z,1328.00
2022-08-01T05:54:55.608Z,1232.00
2022-08-01T05:55:55.586Z,1156.00
2022-08-01T05:56:55.587Z,1164.00
2022-08-01T05:57:55.584Z,1184.00
2022-08-01T05:58:55.577Z,1192.00
2022-08-01T05:59:55.598Z,1080.00
2022-08-01T06:00:55.572Z,1048.00
2022-08-01T06:01:55.608Z,1116.00
2022-08-01T06:02:55.571Z,1176.00
2022-08-01T06:03:55.568Z,1128.00
2022-08-01T06:04:55.563Z,1140.00
2022-08-01T06:05:55.558Z,1220.00
2022-08-01T06:06:55.558Z,1344.00
2022-08-01T06:07:55.557Z,1508.00
2022-08-01T06:08:55.555Z,1624.00
2022-08-01T06:09:55.551Z,1704.00
2022-08-01T06:10:55.552Z,1744.00
2022-08-01T06:11:55.548Z,1772.00
2022-08-01T06:12:55.546Z,1712.00
2022-08-01T06:13:55.536Z,1732.00
2022-08-01T06:14:55.538Z,1644.00
2022-08-01T06:15:55.532Z,1608.00
2022-08-01T06:16:55.538Z,1584.00
2022-08-01T06:17:55.530Z,1620.00
2022-08-01T06:18:56.814Z,1636.00
2022-08-01T06:19:55.526Z,1704.00
2022-08-01T06:20:55.522Z,1756.00
2022-08-01T06:21:55.523Z,1728.00
2022-08-01T06:22:55.526Z,1692.00
2022-08-01T06:23:55.513Z,1708.00
2022-08-01T06:24:55.534Z,1772.00
2022-08-01T06:25:55.508Z,1816.00
2022-08-01T06:26:55.514Z,1832.00
2022-08-01T06:27:55.508Z,1752.00
2022-08-01T06:28:55.501Z,1676.00
2022-08-01T06:29:55.501Z,1576.00
2022-08-01T06:30:55.497Z,1488.00
2022-08-01T06:31:55.497Z,1348.00
2022-08-01T06:32:55.548Z,1144.00
2022-08-01T06:33:55.489Z,1080.00
2022-08-01T06:34:55.794Z,1076.00
2022-08-01T06:35:55.487Z,1108.00
2022-08-01T06:36:55.486Z,1208.00
2022-08-01T06:37:55.483Z,1256.00
2022-08-01T06:38:55.486Z,1276.00
2022-08-01T06:39:55.477Z,1240.00
2022-08-01T06:40:55.473Z,1212.00
2022-08-01T06:41:55.472Z,1256.00
2022-08-01T06:42:55.474Z,1240.00
2022-08-01T06:43:55.478Z,1184.00
2022-08-01T06:44:55.468Z,1116.00
2022-08-01T06:45:55.462Z,1064.00
2022-08-01T06:46:55.463Z,1044.00
2022-08-01T06:47:55.458Z,1004.00
2022-08-01T06:48:55.473Z,1044.00
2022-08-01T06:49:55.454Z,1080.00
2022-08-01T06:50:55.449Z,1048.00
2022-08-01T06:51:55.450Z,1128.00
2022-08-01T06:52:55.450Z,1084.00
2022-08-01T06:53:55.504Z,1120.00
2022-08-01T06:54:55.446Z,1108.00
2022-08-01T06:55:55.438Z,1072.00
2022-08-01T06:56:55.437Z,1072.00
2022-08-01T06:57:55.435Z,1064.00
2022-08-01T06:58:55.437Z,996.00
2022-08-01T06:59:55.433Z,1056.00
2022-08-01T07:00:57.716Z,1028.00
2022-08-01T07:01:55.428Z,952.00
2022-08-01T07:02:55.423Z,992.00
2022-08-01T07:03:55.420Z,1044.00
2022-08-01T07:04:55.470Z,1052.00
2022-08-01T07:05:55.417Z,1068.00
2022-08-01T07:06:55.415Z,1112.00
2022-08-01T07:07:55.416Z,1128.00
2022-08-01T07:08:55.406Z,1148.00
2022-08-01T07:09:55.409Z,1172.00
2022-08-01T07:10:55.403Z,1212.00
2022-08-01T07:11:55.407Z,1260.00
2022-08-01T07:12:55.400Z,1320.00
2022-08-01T07:13:55.397Z,1352.00
2022-08-01T07:14:55.398Z,1360.00
2022-08-01T07:15:55.397Z,1428.00
2022-08-01T07:16:55.391Z,1500.00
2022-08-01T07:17:55.393Z,1548.00
2022-08-01T07:18:55.388Z,1528.00
2022-08-01T07:19:55.388Z,1464.00
2022-08-01T07:20:55.385Z,1468.00
2022-08-01T07:21:55.392Z,1452.00
2022-08-01T07:22:56.544Z,1468.00
2022-08-01T07:23:55.825Z,1560.00
2022-08-01T07:24:55.374Z,1608.00
2022-08-01T07:25:59.315Z,1652.00
2022-08-01T07:26:55.372Z,1716.00
2022-08-01T07:27:55.379Z,1768.00
2022-08-01T07:28:55.370Z,1928.00
2022-08-01T07:29:55.375Z,1980.00
2022-08-01T07:30:55.361Z,2204.00
2022-08-01T07:31:55.361Z,2200.00
2022-08-01T07:32:55.375Z,2124.00
2022-08-01T07:33:55.355Z,2100.00
2022-08-01T07:34:55.355Z,2080.00
2022-08-01T07:35:55.356Z,2104.00
2022-08-01T07:36:55.353Z,2260.00
2022-08-01T07:37:55.350Z,2224.00
2022-08-01T07:38:55.343Z,2400.00
2022-08-01T07:39:55.345Z,2436.00
2022-08-01T07:40:55.343Z,2452.00
2022-08-01T07:42:07.617Z,2544.00
2022-08-01T07:42:55.339Z,2408.00
2022-08-01T07:43:59.612Z,2392.00
2022-08-01T07:44:55.335Z,2316.00
2022-08-01T07:45:55.334Z,2536.00
2022-08-01T07:46:55.331Z,2492.00
2022-08-01T07:47:55.335Z,2656.00
2022-08-01T07:48:55.336Z,2656.00
2022-08-01T07:49:55.338Z,2780.00
2022-08-01T07:50:55.322Z,2736.00
2022-08-01T07:52:04.148Z,2796.00
2022-08-01T07:52:55.321Z,2900.00
2022-08-01T07:53:55.316Z,2920.00
2022-08-01T07:54:55.318Z,2952.00
2022-08-01T07:55:55.316Z,3048.00
2022-08-01T07:56:55.316Z,3060.00
2022-08-01T07:57:55.316Z,3156.00
2022-08-01T07:58:55.310Z,3168.00
2022-08-01T07:59:55.312Z,3112.00
2022-08-01T08:00:55.306Z,3128.00
2022-08-01T08:01:55.377Z,3248.00
2022-08-01T08:02:55.312Z,3188.00
2022-08-01T08:03:55.309Z,3304.00
2022-08-01T08:04:55.299Z,3448.00
2022-08-01T08:06:00.247Z,3364.00
2022-08-01T08:06:55.298Z,3196.00
2022-08-01T08:07:55.301Z,3248.00
2022-08-01T08:08:55.294Z,3288.00
2022-08-01T08:09:55.299Z,3240.00
2022-08-01T08:10:55.293Z,3208.00
2022-08-01T08:11:55.294Z,3012.00
2022-08-01T08:12:55.293Z,3032.00
2022-08-01T08:13:55.289Z,3252.00
2022-08-01T08:14:55.289Z,3492.00
2022-08-01T08:15:55.285Z,3688.00
2022-08-01T08:16:55.282Z,3824.00
2022-08-01T08:17:55.426Z,3680.00
2022-08-01T08:18:55.284Z,3536.00
2022-08-01T08:19:55.288Z,3688.00
2022-08-01T08:20:55.295Z,3760.00
2022-08-01T08:21:55.299Z,3824.00
2022-08-01T08:22:55.280Z,3908.00
2022-08-01T08:23:55.285Z,3928.00
2022-08-01T08:24:55.275Z,3880.00
2022-08-01T08:25:55.275Z,3872.00
2022-08-01T08:26:55.276Z,3768.00
2022-08-01T08:27:55.276Z,3548.00
2022-08-01T08:28:55.276Z,3332.00
2022-08-01T08:29:55.269Z,3256.00
2022-08-01T08:30:55.268Z,3100.00
2022-08-01T08:31:55.311Z,3232.00
2022-08-01T08:32:55.291Z,3288.00
2022-08-01T08:33:55.271Z,3240.00
2022-08-01T08:34:55.268Z,3228.00
2022-08-01T08:35:55.264Z,3264.00
2022-08-01T08:36:55.266Z,3360.00
2022-08-01T08:37:56.143Z,3564.00
2022-08-01T08:38:55.261Z,3776.00
2022-08-01T08:39:55.263Z,3912.00
2022-08-01T08:40:55.257Z,3972.00
2022-08-01T08:41:55.273Z,4360.00
2022-08-01T08:42:55.257Z,4720.00
2022-08-01T08:43:55.259Z,4576.00
2022-08-01T08:44:55.257Z,4520.00
2022-08-01T08:45:59.315Z,4660.00
2022-08-01T08:46:55.255Z,4708.00
2022-08-01T08:47:55.253Z,4644.00
2022-08-01T08:48:55.301Z,4576.00
2022-08-01T08:49:55.255Z,4712.00
2022-08-01T08:50:55.249Z,4500.00
2022-08-01T08:51:55.251Z,4336.00
2022-08-01T08:52:55.250Z,4104.00
2022-08-01T08:53:55.250Z,3908.00
2022-08-01T08:54:55.245Z,3820.00
2022-08-01T08:55:56.687Z,3692.00
2022-08-01T08:56:55.245Z,3680.00
2022-08-01T08:57:55.247Z,3736.00
2022-08-01T08:58:55.241Z,3868.00
2022-08-01T08:59:55.302Z,3804.00
2022-08-01T09:00:55.239Z,3788.00
2022-08-01T09:01:55.243Z,3764.00
2022-08-01T09:02:55.299Z,3996.00
2022-08-01T09:03:55.240Z,4056.00
2022-08-01T09:04:55.247Z,4040.00
2022-08-01T09:05:55.238Z,3936.00
2022-08-01T09:06:55.240Z,3756.00
2022-08-01T09:07:55.239Z,3224.00
2022-08-01T09:08:55.234Z,2820.00
2022-08-01T09:09:55.236Z,2424.00
2022-08-01T09:10:55.239Z,2428.00
2022-08-01T09:11:57.403Z,2952.00
2022-08-01T09:12:55.235Z,3108.00
2022-08-01T09:13:55.234Z,3084.00
2022-08-01T09:14:55.252Z,3196.00
2022-08-01T09:15:55.233Z,3364.00
2022-08-01T09:16:55.233Z,3428.00
2022-08-01T09:17:55.231Z,3792.00
2022-08-01T09:18:55.231Z,3836.00
2022-08-01T09:19:55.228Z,4064.00
2022-08-01T09:20:55.225Z,3552.00
2022-08-01T09:21:55.229Z,3712.00
2022-08-01T09:22:55.226Z,3700.00
2022-08-01T09:23:55.275Z,3940.00
2022-08-01T09:24:55.226Z,4160.00
2022-08-01T09:25:56.837Z,4344.00
2022-08-01T09:26:55.226Z,4296.00
2022-08-01T09:27:55.224Z,4184.00
2022-08-01T09:28:55.221Z,3956.00
2022-08-01T09:30:01.003Z,3828.00
2022-08-01T09:30:55.217Z,3860.00
2022-08-01T09:31:55.221Z,3968.00
2022-08-01T09:32:55.218Z,4280.00
2022-08-01T09:33:55.222Z,4552.00
2022-08-01T09:34:55.219Z,4652.00
2022-08-01T09:35:55.219Z,4876.00
2022-08-01T09:36:55.222Z,4944.00
2022-08-01T09:37:55.220Z,5048.00
2022-08-01T09:38:55.218Z,4852.00
2022-08-01T09:39:55.219Z,4816.00
2022-08-01T09:40:55.736Z,5100.00
2022-08-01T09:41:55.225Z,5276.00
2022-08-01T09:42:55.217Z,4900.00
2022-08-01T09:43:55.213Z,4384.00
2022-08-01T09:44:55.486Z,3860.00
2022-08-01T09:45:55.278Z,3024.00
2022-08-01T09:46:55.212Z,2760.00
2022-08-01T09:47:55.215Z,2456.00
2022-08-01T09:48:55.236Z,2304.00
2022-08-01T09:49:55.226Z,2284.00
2022-08-01T09:50:55.262Z,2372.00
2022-08-01T09:52:00.113Z,2348.00
2022-08-01T09:52:55.247Z,2296.00
2022-08-01T09:53:55.212Z,2304.00
2022-08-01T09:54:55.209Z,2180.00
2022-08-01T09:55:55.213Z,2144.00
2022-08-01T09:56:55.212Z,2240.00
2022-08-01T09:57:55.222Z,2496.00
2022-08-01T09:59:00.534Z,2872.00
2022-08-01T09:59:59.879Z,3100.00
2022-08-01T10:00:55.205Z,3340.00
2022-08-01T10:01:55.209Z,3936.00
2022-08-01T10:02:55.266Z,4280.00
2022-08-01T10:03:55.295Z,4664.00
2022-08-01T10:04:59.817Z,5036.00
2022-08-01T10:05:55.203Z,5072.00
2022-08-01T10:07:02.978Z,4928.00
2022-08-01T10:07:55.203Z,4992.00
2022-08-01T10:08:55.198Z,5028.00
2022-08-01T10:09:55.204Z,5156.00
2022-08-01T10:10:58.846Z,5176.00
2022-08-01T10:11:55.203Z,5076.00
2022-08-01T10:12:55.199Z,5016.00
2022-08-01T10:13:55.244Z,5004.00
2022-08-01T10:14:55.196Z,4852.00
2022-08-01T10:15:55.202Z,5216.00
2022-08-01T10:16:59.110Z,5348.00
2022-08-01T10:17:57.108Z,5448.00
2022-08-01T10:19:02.355Z,5400.00
2022-08-01T10:20:59.185Z,5380.00
2022-08-01T10:22:00.034Z,5320.00
2022-08-01T10:24:03.410Z,4576.00
2022-08-01T10:25:03.107Z,4436.00
2022-08-01T10:27:08.994Z,4484.00
2022-08-01T10:28:07.075Z,4076.00
2022-08-01T10:30:08.681Z,4520.00
2022-08-01T10:30:59.964Z,4456.00
2022-08-01T10:33:03.935Z,3896.00
2022-08-01T10:34:03.927Z,3620.00
2022-08-01T10:36:08.307Z,4136.00
2022-08-01T10:37:08.284Z,3964.00
2022-08-01T10:39:11.859Z,4212.00
2022-08-01T10:40:29.404Z,4600.00
2022-08-01T10:42:16.090Z,4644.00
2022-08-01T10:43:21.595Z,4444.00
2022-08-01T10:45:19.801Z,4456.00
2022-08-01T10:46:19.826Z,4204.00
2022-08-01T10:48:24.613Z,3616.00
2022-08-01T10:49:23.789Z,3720.00
2022-08-01T10:51:18.489Z,3504.00
2022-08-01T10:52:16.832Z,3192.00
2022-08-01T10:54:20.802Z,2924.00
2022-08-01T10:55:20.791Z,2908.00
2022-08-01T10:57:27.686Z,2692.00
2022-08-01T10:58:24.753Z,2684.00
2022-08-01T11:00:17.646Z,2816.00
2022-08-01T11:01:17.721Z,2900.00
2022-08-01T11:03:41.485Z,3040.00
2022-08-01T11:04:22.612Z,2860.00
2022-08-01T11:06:26.596Z,2316.00
2022-08-01T11:07:26.574Z,2244.00
2022-08-01T11:09:19.467Z,2248.00
2022-08-01T11:10:19.459Z,2760.00
2022-08-01T11:12:25.167Z,2972.00
2022-08-01T11:13:23.421Z,2988.00
2022-08-01T11:15:29.513Z,3512.00
2022-08-01T11:16:27.436Z,3628.00
2022-08-01T11:18:31.371Z,4044.00
2022-08-01T11:19:31.340Z,4204.00
2022-08-01T11:21:59.214Z,4660.00
2022-08-01T11:22:35.312Z,4848.00
2022-08-01T11:24:39.296Z,5044.00
2022-08-01T11:26:05.134Z,5172.00
2022-08-01T11:26:40.202Z,5100.00
2022-08-01T11:27:39.283Z,4992.00
2022-08-01T11:28:41.250Z,4880.00
2022-08-01T11:29:39.281Z,4956.00
2022-08-01T11:30:39.380Z,5916.00
2022-08-01T11:31:39.283Z,6864.00
2022-08-01T11:33:05.584Z,7096.00
2022-08-01T11:33:39.282Z,7824.00
2022-08-01T11:34:39.273Z,7940.00
2022-08-01T11:35:39.283Z,8328.00
2022-08-01T11:37:39.291Z,9088.00
2022-08-01T11:38:39.289Z,13856.00
2022-08-01T11:39:39.291Z,16832.00
2022-08-01T11:40:39.292Z,21408.00
2022-08-01T11:41:40.207Z,21696.00
2022-08-01T11:42:39.295Z,21120.00
2022-08-01T11:43:39.294Z,22368.00
2022-08-01T11:44:39.293Z,23648.00
2022-08-01T11:45:39.294Z,24384.00
2022-08-01T11:46:39.298Z,24096.00
2022-08-01T11:47:39.311Z,24032.00
2022-08-01T11:48:39.301Z,23808.00
2022-08-01T11:49:39.432Z,23456.00
2022-08-01T11:50:39.307Z,23136.00
2022-08-01T11:51:39.312Z,18464.00
2022-08-01T11:52:39.314Z,21376.00
2022-08-01T11:53:39.319Z,21248.00
2022-08-01T11:54:39.325Z,21760.00
2022-08-01T11:55:39.325Z,22208.00
2022-08-01T11:56:42.962Z,17696.00
2022-08-01T11:57:39.669Z,8312.00
2022-08-01T11:58:39.334Z,21344.00
2022-08-01T11:59:41.029Z,23168.00
2022-08-01T12:00:43.954Z,8772.00
2022-08-01T12:01:40.241Z,21344.00
2022-08-01T12:02:39.439Z,19584.00
2022-08-01T12:03:39.353Z,19040.00
2022-08-01T12:04:39.356Z,21760.00
2022-08-01T12:05:43.308Z,21216.00
2022-08-01T12:06:39.364Z,21824.00
2022-08-01T12:07:39.373Z,20640.00
2022-08-01T12:08:39.372Z,19648.00
2022-08-01T12:09:39.380Z,19232.00
2022-08-01T12:10:47.099Z,5740.00
2022-08-01T12:11:39.386Z,5428.00
2022-08-01T12:12:39.386Z,5996.00
2022-08-01T12:13:39.395Z,5476.00
2022-08-01T12:14:39.401Z,12896.00
2022-08-01T12:15:39.404Z,12020.00
2022-08-01T12:16:39.405Z,6520.00
2022-08-01T12:17:39.410Z,9104.00
2022-08-01T12:18:39.413Z,9128.00
2022-08-01T12:19:39.416Z,7824.00
2022-08-01T12:20:42.689Z,7128.00
2022-08-01T12:21:39.427Z,8180.00
2022-08-01T12:22:39.427Z,7160.00
2022-08-01T12:23:39.432Z,7256.00
2022-08-01T12:24:39.435Z,8092.00
2022-08-01T12:25:39.461Z,8200.00
2022-08-01T12:26:39.444Z,8824.00
2022-08-01T12:27:39.444Z,8720.00
2022-08-01T12:28:39.450Z,7536.00
2022-08-01T12:29:39.451Z,7584.00
2022-08-01T12:30:39.458Z,8640.00
2022-08-01T12:31:39.459Z,7680.00
2022-08-01T12:32:39.463Z,8744.00
2022-08-01T12:33:39.462Z,8780.00
2022-08-01T12:34:39.470Z,7608.00
2022-08-01T12:35:39.468Z,9264.00
2022-08-01T12:36:39.485Z,9116.00
2022-08-01T12:37:39.474Z,9076.00
2022-08-01T12:38:39.479Z,9508.00
2022-08-01T12:39:40.281Z,10492.00
2022-08-01T12:40:44.680Z,9964.00
2022-08-01T12:41:39.481Z,9148.00
2022-08-01T12:42:39.492Z,9708.00
2022-08-01T12:43:39.492Z,10472.00
2022-08-01T12:44:39.498Z,10500.00
2022-08-01T12:45:39.500Z,7864.00
2022-08-01T12:46:44.074Z,7596.00
2022-08-01T12:47:39.506Z,8336.00
2022-08-01T12:48:39.510Z,8580.00
2022-08-01T12:49:39.557Z,8056.00
2022-08-01T12:50:39.510Z,9280.00
2022-08-01T12:51:39.541Z,8016.00
2022-08-01T12:52:39.520Z,7516.00
2022-08-01T12:53:39.771Z,8216.00